Time;durP1;ratioP1;P1;durP2;ratioP2;P2;SDS_P1;SDS_P2;PMS_P1;PMS_P2;Temp;Humidity;BMP_temperature;BMP_pressure;BME280_temperature;BME280_humidity;BME280_pressure;Samples;Min_cycle;Max_cycle;Signal;HPM_P1;HPM_P2
2022/07/26 00:02:07;;;;;;;7.47;6.70;;;;;;;;;;5012238;28;20500;-81
2022/07/26 00:04:33;;;;;;;8.70;7.18;;;;;;;;;;5012815;28;20110;-81
2022/07/26 00:06:59;;;;;;;8.10;7.35;;;;;;;;;;5012566;28;20037;-82
2022/07/26 00:09:26;;;;;;;8.18;7.00;;;;;;;;;;5012732;28;20481;-81
2022/07/26 00:11:52;;;;;;;6.95;6.25;;;;;;;;;;5016041;28;20507;-81
2022/07/26 00:14:18;;;;;;;8.15;7.45;;;;;;;;;;5016622;28;20026;-81
2022/07/26 00:16:44;;;;;;;7.40;6.57;;;;;;;;;;5016633;28;20493;-81
2022/07/26 00:19:10;;;;;;;8.50;7.70;;;;;;;;;;5016584;28;20053;-81
2022/07/26 00:21:36;;;;;;;9.63;7.70;;;;;;;;;;5016683;28;20517;-81
2022/07/26 00:24:03;;;;;;;8.07;7.38;;;;;;;;;;5016335;28;20416;-81
2022/07/26 00:26:29;;;;;;;7.88;7.18;;;;;;;;;;5016535;28;20125;-81
2022/07/26 00:28:55;;;;;;;9.95;7.40;;;;;;;;;;4998729;28;20492;-81
2022/07/26 00:31:22;;;;;;;7.78;6.97;;;;;;;;;;5016233;28;20030;-81
2022/07/26 00:33:48;;;;;;;8.70;8.00;;;;;;;;;;5016363;28;20033;-81
2022/07/26 00:36:14;;;;;;;8.50;7.18;;;;;;;;;;5016189;28;20022;-81
2022/07/26 00:38:40;;;;;;;8.50;7.70;;;;;;;;;;5016373;28;20027;-81
2022/07/26 00:41:08;;;;;;;8.60;7.80;;;;;;;;;;5016133;28;20064;-81
2022/07/26 00:43:34;;;;;;;8.32;7.53;;;;;;;;;;5016090;28;20036;-81
2022/07/26 00:46:00;;;;;;;8.57;7.70;;;;;;;;;;5016037;28;20112;-81
2022/07/26 00:48:26;;;;;;;8.50;7.70;;;;;;;;;;5015890;28;20038;-81
2022/07/26 00:50:53;;;;;;;9.18;8.30;;;;;;;;;;5015860;28;20057;-81
2022/07/26 00:53:20;;;;;;;8.65;7.85;;;;;;;;;;5015882;28;20030;-81
2022/07/26 00:55:48;;;;;;;9.68;7.82;;;;;;;;;;5015929;28;20057;-81
2022/07/26 00:58:14;;;;;;;8.82;8.10;;;;;;;;;;5015932;28;20365;-81
2022/07/26 01:00:41;;;;;;;9.20;8.40;;;;;;;;;;5015753;28;20388;-81
2022/07/26 01:03:07;;;;;;;8.48;7.78;;;;;;;;;;5015527;28;20132;-81
2022/07/26 01:05:34;;;;;;;8.63;7.85;;;;;;;;;;5015691;28;20037;-81
2022/07/26 01:08:00;;;;;;;9.20;8.40;;;;;;;;;;5015610;28;20076;-81
2022/07/26 01:10:26;;;;;;;8.75;8.00;;;;;;;;;;5015536;28;20042;-80
2022/07/26 01:12:52;;;;;;;8.23;7.60;;;;;;;;;;5015549;28;20512;-80
2022/07/26 01:15:18;;;;;;;8.57;7.75;;;;;;;;;;5015401;28;20026;-81
2022/07/26 01:17:46;;;;;;;8.73;7.90;;;;;;;;;;5015743;28;20026;-81
2022/07/26 01:20:12;;;;;;;8.48;7.68;;;;;;;;;;5015572;28;20032;-81
2022/07/26 01:22:39;;;;;;;8.70;7.80;;;;;;;;;;5015121;28;20477;-81
2022/07/26 01:25:05;;;;;;;9.98;8.40;;;;;;;;;;5015467;28;20075;-81
2022/07/26 01:27:33;;;;;;;8.70;8.00;;;;;;;;;;5015177;28;20112;-80
2022/07/26 01:29:59;;;;;;;8.38;7.65;;;;;;;;;;5015097;28;20055;-81
2022/07/26 01:32:25;;;;;;;9.27;8.48;;;;;;;;;;5015174;28;20025;-80
2022/07/26 01:34:51;;;;;;;9.60;8.65;;;;;;;;;;5015245;28;20030;-81
2022/07/26 01:37:17;;;;;;;8.60;7.80;;;;;;;;;;5015225;28;20072;-81
2022/07/26 01:39:44;;;;;;;10.00;9.07;;;;;;;;;;5015083;28;20469;-81
2022/07/26 01:42:10;;;;;;;9.95;8.95;;;;;;;;;;5015040;28;20036;-81
2022/07/26 01:44:36;;;;;;;8.75;7.85;;;;;;;;;;5014996;28;20522;-81
2022/07/26 01:47:03;;;;;;;8.57;7.88;;;;;;;;;;5015075;28;20037;-81
2022/07/26 01:49:29;;;;;;;8.45;7.65;;;;;;;;;;5014861;28;20389;-81
2022/07/26 01:51:55;;;;;;;8.93;8.13;;;;;;;;;;5014933;28;20037;-81
2022/07/26 01:54:21;;;;;;;8.85;7.95;;;;;;;;;;5014906;28;20025;-81
2022/07/26 01:56:47;;;;;;;9.77;8.98;;;;;;;;;;5014655;28;20025;-81
2022/07/26 01:59:13;;;;;;;9.68;8.77;;;;;;;;;;5014836;28;20037;-81
2022/07/26 02:01:39;;;;;;;9.13;8.07;;;;;;;;;;5014163;28;20181;-81
2022/07/26 02:04:05;;;;;;;9.25;8.45;;;;;;;;;;5014707;28;20026;-81
2022/07/26 02:06:31;;;;;;;9.85;8.95;;;;;;;;;;5014526;28;20058;-81
2022/07/26 02:08:57;;;;;;;9.48;8.57;;;;;;;;;;5014498;28;20487;-80
2022/07/26 02:11:24;;;;;;;9.18;8.38;;;;;;;;;;5014565;28;20104;-80
2022/07/26 02:13:50;;;;;;;9.73;8.93;;;;;;;;;;5014377;28;20030;-81
2022/07/26 02:16:16;;;;;;;9.10;8.30;;;;;;;;;;5014533;28;20030;-81
2022/07/26 02:18:42;;;;;;;8.70;7.90;;;;;;;;;;5014228;28;20489;-81
2022/07/26 02:21:08;;;;;;;9.10;8.20;;;;;;;;;;5014319;28;20038;-81
2022/07/26 02:23:35;;;;;;;8.75;7.95;;;;;;;;;;5014287;28;20029;-81
2022/07/26 02:26:01;;;;;;;8.95;8.15;;;;;;;;;;5014119;28;20148;-80
2022/07/26 02:28:27;;;;;;;9.13;8.38;;;;;;;;;;5014213;28;20398;-80
2022/07/26 02:30:54;;;;;;;8.80;7.90;;;;;;;;;;5013972;28;20029;-81
2022/07/26 02:33:20;;;;;;;9.38;8.50;;;;;;;;;;5013452;28;20119;-81
2022/07/26 02:35:47;;;;;;;9.45;8.70;;;;;;;;;;5013911;28;20041;-81
2022/07/26 02:38:14;;;;;;;9.38;8.57;;;;;;;;;;5014053;28;20029;-80
2022/07/26 02:40:41;;;;;;;9.73;8.82;;;;;;;;;;5013790;28;20037;-81
2022/07/26 02:43:08;;;;;;;8.73;7.95;;;;;;;;;;5013894;28;20030;-81
2022/07/26 02:45:34;;;;;;;9.38;8.48;;;;;;;;;;5013972;28;20030;-81
2022/07/26 02:48:00;;;;;;;8.23;7.60;;;;;;;;;;5013686;28;20076;-81
2022/07/26 02:50:28;;;;;;;8.88;8.07;;;;;;;;;;5013785;28;20038;-80
2022/07/26 02:52:54;;;;;;;9.77;8.93;;;;;;;;;;5013576;28;20084;-81
2022/07/26 02:55:21;;;;;;;9.00;8.18;;;;;;;;;;5013699;28;20038;-81
2022/07/26 02:57:47;;;;;;;9.65;8.70;;;;;;;;;;5013504;28;20025;-81
2022/07/26 03:00:15;;;;;;;8.80;7.90;;;;;;;;;;5013515;28;20025;-80
2022/07/26 03:02:41;;;;;;;9.38;8.68;;;;;;;;;;5013383;28;20054;-81
2022/07/26 03:05:07;;;;;;;9.95;8.85;;;;;;;;;;5013528;28;20021;-81
2022/07/26 03:07:33;;;;;;;10.30;9.40;;;;;;;;;;5013562;28;20025;-81
2022/07/26 03:09:59;;;;;;;10.07;9.18;;;;;;;;;;5013100;28;20046;-80
2022/07/26 03:12:26;;;;;;;10.27;9.27;;;;;;;;;;5013527;28;20045;-80
2022/07/26 03:14:52;;;;;;;11.30;10.02;;;;;;;;;;5013231;28;20025;-80
2022/07/26 03:17:19;;;;;;;10.13;9.15;;;;;;;;;;5013384;28;20496;-80
2022/07/26 03:19:45;;;;;;;9.80;9.00;;;;;;;;;;5013293;28;20032;-81
2022/07/26 03:22:11;;;;;;;10.73;8.75;;;;;;;;;;5013044;28;20080;-80
2022/07/26 03:24:37;;;;;;;10.73;9.63;;;;;;;;;;5013445;28;20113;-81
2022/07/26 03:27:03;;;;;;;10.57;9.32;;;;;;;;;;5012938;28;20058;-80
2022/07/26 03:29:30;;;;;;;9.80;9.00;;;;;;;;;;5013225;28;20065;-80
2022/07/26 03:31:56;;;;;;;8.98;8.15;;;;;;;;;;5013095;28;20100;-81
2022/07/26 03:34:22;;;;;;;11.07;9.98;;;;;;;;;;5013228;28;20029;-81
2022/07/26 03:36:48;;;;;;;10.27;9.20;;;;;;;;;;5012975;28;20495;-81
2022/07/26 03:39:14;;;;;;;10.02;9.07;;;;;;;;;;5012928;28;20393;-81
2022/07/26 03:41:40;;;;;;;11.38;9.77;;;;;;;;;;5013093;28;20034;-81
2022/07/26 03:44:06;;;;;;;9.90;9.00;;;;;;;;;;5012652;28;20167;-81
2022/07/26 03:46:32;;;;;;;10.35;9.02;;;;;;;;;;5012887;28;20936;-81
2022/07/26 03:48:59;;;;;;;9.40;8.60;;;;;;;;;;5012596;28;20030;-81
2022/07/26 03:51:25;;;;;;;10.63;9.52;;;;;;;;;;5012498;28;20033;-81
2022/07/26 03:53:51;;;;;;;10.55;9.57;;;;;;;;;;5012880;28;20030;-81
2022/07/26 03:59:06;;;;;;;11.68;8.93;;;;;;;;;;5030764;28;20041;-81
2022/07/26 04:01:33;;;;;;;9.90;9.00;;;;;;;;;;5032234;28;20151;-81
2022/07/26 04:04:00;;;;;;;10.68;9.68;;;;;;;;;;5032196;28;20163;-81
2022/07/26 04:06:26;;;;;;;9.63;8.73;;;;;;;;;;5032447;28;20041;-81
2022/07/26 04:08:52;;;;;;;10.38;9.38;;;;;;;;;;5032155;28;20450;-81
2022/07/26 04:11:19;;;;;;;10.57;9.25;;;;;;;;;;5032333;28;20030;-81
2022/07/26 04:13:45;;;;;;;12.38;11.13;;;;;;;;;;5032303;28;20030;-81
2022/07/26 04:16:11;;;;;;;14.40;12.98;;;;;;;;;;5032261;28;20057;-81
2022/07/26 04:18:37;;;;;;;15.40;13.88;;;;;;;;;;5032320;28;20022;-82
2022/07/26 04:21:03;;;;;;;14.48;12.82;;;;;;;;;;5032071;28;20022;-82
2022/07/26 04:23:29;;;;;;;11.60;10.32;;;;;;;;;;5032289;28;20029;-81
2022/07/26 04:25:55;;;;;;;10.63;9.52;;;;;;;;;;5032035;28;20443;-81
2022/07/26 04:28:23;;;;;;;11.13;10.10;;;;;;;;;;5032034;28;20053;-81
2022/07/26 04:30:49;;;;;;;11.73;10.52;;;;;;;;;;5032114;28;20420;-82
2022/07/26 04:33:15;;;;;;;11.95;10.13;;;;;;;;;;5031969;28;20018;-81
2022/07/26 04:35:41;;;;;;;11.30;9.55;;;;;;;;;;5032251;28;20025;-82
2022/07/26 04:38:07;;;;;;;11.70;10.60;;;;;;;;;;5031933;28;20116;-80
2022/07/26 04:40:33;;;;;;;11.30;10.15;;;;;;;;;;5032368;28;20022;-81
2022/07/26 04:43:00;;;;;;;11.52;10.43;;;;;;;;;;5031982;28;20187;-82
2022/07/26 04:45:27;;;;;;;11.95;10.63;;;;;;;;;;5032162;28;20061;-80
2022/07/26 04:47:53;;;;;;;11.50;10.40;;;;;;;;;;5031915;28;20045;-78
2022/07/26 04:50:20;;;;;;;11.25;9.98;;;;;;;;;;5031840;28;20570;-77
2022/07/26 04:52:47;;;;;;;11.52;10.32;;;;;;;;;;5031907;28;20026;-78
2022/07/26 04:55:13;;;;;;;10.07;9.18;;;;;;;;;;5031590;28;20030;-79
2022/07/26 04:57:39;;;;;;;10.55;9.55;;;;;;;;;;5034482;28;20029;-76
2022/07/26 05:00:07;;;;;;;10.70;9.75;;;;;;;;;;5034876;28;20460;-76
2022/07/26 05:02:33;;;;;;;13.07;9.68;;;;;;;;;;5035267;28;20294;-76
2022/07/26 05:04:59;;;;;;;12.80;10.68;;;;;;;;;;5035028;28;20032;-76
2022/07/26 05:07:25;;;;;;;10.57;9.57;;;;;;;;;;5035162;28;20060;-76
2022/07/26 05:09:51;;;;;;;11.90;10.77;;;;;;;;;;5034928;28;20045;-76
2022/07/26 05:12:17;;;;;;;12.30;10.80;;;;;;;;;;5034936;28;20372;-76
2022/07/26 05:14:44;;;;;;;11.68;9.63;;;;;;;;;;5034985;28;20036;-77
2022/07/26 05:17:10;;;;;;;10.95;9.38;;;;;;;;;;5034687;28;20376;-77
2022/07/26 05:19:37;;;;;;;12.55;11.27;;;;;;;;;;5034908;28;20063;-77
2022/07/26 05:22:03;;;;;;;11.55;10.35;;;;;;;;;;5034640;28;20034;-76
2022/07/26 05:24:29;;;;;;;11.38;10.32;;;;;;;;;;5033144;28;20684;-77
2022/07/26 05:26:55;;;;;;;11.95;10.68;;;;;;;;;;5034608;28;20029;-77
2022/07/26 05:29:21;;;;;;;12.20;10.80;;;;;;;;;;5029116;28;20091;-76
2022/07/26 05:31:47;;;;;;;11.98;10.77;;;;;;;;;;5032605;28;20718;-77
2022/07/26 05:34:13;;;;;;;11.48;10.30;;;;;;;;;;5032424;28;20021;-78
2022/07/26 05:36:41;;;;;;;12.20;10.90;;;;;;;;;;5033889;28;20044;-79
2022/07/26 05:39:07;;;;;;;13.02;10.98;;;;;;;;;;5023357;28;20058;-80
2022/07/26 05:41:33;;;;;;;15.05;13.70;;;;;;;;;;5032243;28;20037;-79
2022/07/26 05:44:00;;;;;;;12.98;11.80;;;;;;;;;;5033260;28;20036;-79
2022/07/26 05:46:26;;;;;;;11.63;10.55;;;;;;;;;;5031983;28;20029;-78
2022/07/26 05:48:52;;;;;;;12.38;11.10;;;;;;;;;;5033050;28;20025;-80
2022/07/26 05:51:18;;;;;;;11.85;10.68;;;;;;;;;;5033031;28;20036;-80
2022/07/26 05:53:44;;;;;;;11.93;10.82;;;;;;;;;;5033556;28;20763;-82
2022/07/26 05:56:10;;;;;;;11.50;10.40;;;;;;;;;;5033345;28;20108;-81
2022/07/26 05:58:36;;;;;;;22.25;12.88;;;;;;;;;;5032444;28;20518;-81
2022/07/26 06:01:02;;;;;;;17.80;13.25;;;;;;;;;;5032324;28;20038;-77
2022/07/26 06:03:30;;;;;;;13.82;11.50;;;;;;;;;;5032550;28;20034;-79
2022/07/26 06:05:57;;;;;;;12.45;11.18;;;;;;;;;;5033122;28;20037;-79
2022/07/26 06:08:24;;;;;;;29.13;26.58;;;;;;;;;;5031735;28;20108;-80
2022/07/26 06:10:50;;;;;;;18.98;14.65;;;;;;;;;;5015178;28;20072;-79
2022/07/26 06:13:16;;;;;;;16.55;13.45;;;;;;;;;;5014916;28;20099;-80
2022/07/26 06:15:44;;;;;;;14.65;11.27;;;;;;;;;;5032555;28;20061;-78
2022/07/26 06:18:10;;;;;;;13.35;11.75;;;;;;;;;;5032465;28;20041;-83
2022/07/26 06:20:40;;;;;;;13.50;12.02;;;;;;;;;;5033012;28;20100;-81
2022/07/26 06:23:07;;;;;;;12.88;11.57;;;;;;;;;;5032774;28;20059;-80
2022/07/26 06:25:33;;;;;;;12.70;11.55;;;;;;;;;;5033075;28;20388;-82
2022/07/26 06:28:01;;;;;;;17.67;15.98;;;;;;;;;;5032626;28;20033;-82
2022/07/26 06:30:27;;;;;;;17.75;15.95;;;;;;;;;;5030129;28;20041;-82
2022/07/26 06:32:54;;;;;;;14.77;13.48;;;;;;;;;;5020944;28;20030;-83
2022/07/26 06:35:30;;;;;;;13.88;12.50;;;;;;;;;;5005046;28;20045;-87
2022/07/26 06:37:58;;;;;;;29.05;26.35;;;;;;;;;;5008047;28;20043;-77
2022/07/26 06:40:25;;;;;;;12.90;11.73;;;;;;;;;;5031523;28;20033;-78
2022/07/26 06:42:51;;;;;;;15.15;13.85;;;;;;;;;;5031596;28;20044;-76
2022/07/26 06:45:32;;;;;;;16.20;14.73;;;;;;;;;;5015091;28;20053;-81
2022/07/26 06:47:58;;;;;;;14.60;13.20;;;;;;;;;;5029151;28;20399;-79
2022/07/26 06:50:25;;;;;;;13.40;12.07;;;;;;;;;;5032015;28;20114;-78
2022/07/26 06:52:51;;;;;;;18.05;16.45;;;;;;;;;;5032177;28;20540;-78
2022/07/26 06:55:17;;;;;;;31.80;19.50;;;;;;;;;;5021308;28;20158;-84
2022/07/26 06:57:43;;;;;;;25.98;23.48;;;;;;;;;;4998932;28;20491;-81
2022/07/26 07:00:10;;;;;;;20.98;18.95;;;;;;;;;;5031208;28;20025;-85
2022/07/26 07:02:36;;;;;;;16.33;14.23;;;;;;;;;;5009303;28;20049;-80
2022/07/26 07:05:02;;;;;;;101.38;46.97;;;;;;;;;;5012096;28;20461;-84
2022/07/26 07:07:31;;;;;;;79.15;37.92;;;;;;;;;;5002999;28;20042;-87
2022/07/26 07:10:21;;;;;;;106.93;48.80;;;;;;;;;;5010212;28;20030;-88
2022/07/26 07:12:47;;;;;;;150.68;66.65;;;;;;;;;;5008646;28;20053;-85
2022/07/26 07:15:13;;;;;;;156.30;67.28;;;;;;;;;;5011875;28;20493;-84
2022/07/26 07:17:39;;;;;;;171.10;72.57;;;;;;;;;;5012048;28;20022;-82
2022/07/26 07:20:06;;;;;;;228.93;94.35;;;;;;;;;;5011850;28;20033;-83
2022/07/26 07:22:32;;;;;;;193.32;82.78;;;;;;;;;;5012048;28;20113;-84
2022/07/26 07:24:59;;;;;;;154.93;69.18;;;;;;;;;;5012162;28;20026;-84
2022/07/26 07:27:25;;;;;;;117.25;53.80;;;;;;;;;;5010834;28;20039;-80
2022/07/26 07:29:52;;;;;;;35.15;21.65;;;;;;;;;;5011550;28;20033;-82
2022/07/26 07:32:18;;;;;;;38.10;21.67;;;;;;;;;;5010649;28;20044;-84
2022/07/26 07:34:45;;;;;;;42.60;24.13;;;;;;;;;;5011934;28;20021;-79
2022/07/26 07:37:11;;;;;;;36.75;23.17;;;;;;;;;;5011497;28;20136;-80
2022/07/26 07:39:37;;;;;;;17.92;16.05;;;;;;;;;;5011285;28;20366;-82
2022/07/26 07:42:04;;;;;;;64.18;32.97;;;;;;;;;;5011681;28;20030;-81
2022/07/26 07:44:30;;;;;;;44.85;25.85;;;;;;;;;;5010821;28;20042;-81
2022/07/26 07:46:56;;;;;;;24.85;16.15;;;;;;;;;;5011210;28;20052;-81
2022/07/26 07:49:25;;;;;;;141.85;62.92;;;;;;;;;;5000757;28;20029;-83
2022/07/26 07:51:55;;;;;;;154.65;67.93;;;;;;;;;;5000920;28;20090;-79
2022/07/26 07:54:21;;;;;;;50.78;27.45;;;;;;;;;;4999874;28;20054;-81
2022/07/26 07:56:47;;;;;;;111.95;50.58;;;;;;;;;;5001394;28;20018;-82
2022/07/26 07:59:13;;;;;;;38.03;31.50;;;;;;;;;;5000566;28;20094;-82
2022/07/26 08:01:39;;;;;;;81.10;47.45;;;;;;;;;;5006616;28;20131;-82
2022/07/26 08:04:05;;;;;;;29.30;19.15;;;;;;;;;;5021850;28;20413;-81
2022/07/26 08:06:31;;;;;;;54.53;30.27;;;;;;;;;;5019835;28;20026;-83
2022/07/26 08:08:57;;;;;;;20.73;16.98;;;;;;;;;;5020685;28;20369;-82
2022/07/26 08:11:23;;;;;;;23.23;19.75;;;;;;;;;;5021482;28;20030;-80
2022/07/26 08:13:50;;;;;;;14.27;12.85;;;;;;;;;;5013405;28;20062;-81
2022/07/26 08:16:16;;;;;;;11.23;10.20;;;;;;;;;;5018486;28;20492;-84
2022/07/26 08:18:42;;;;;;;19.45;15.82;;;;;;;;;;5029798;28;20029;-82
2022/07/26 08:21:08;;;;;;;15.35;13.85;;;;;;;;;;5030765;28;20025;-84
2022/07/26 08:23:34;;;;;;;15.07;13.57;;;;;;;;;;5030752;28;20044;-81
2022/07/26 08:26:00;;;;;;;14.43;12.05;;;;;;;;;;5030099;28;20080;-83
2022/07/26 08:28:27;;;;;;;17.55;13.63;;;;;;;;;;5021512;28;20026;-82
2022/07/26 08:30:53;;;;;;;84.78;42.75;;;;;;;;;;5021120;28;20049;-82
2022/07/26 08:33:19;;;;;;;60.28;33.20;;;;;;;;;;5031038;28;20481;-84
2022/07/26 08:35:45;;;;;;;43.38;25.77;;;;;;;;;;5034785;28;20152;-83
2022/07/26 08:38:11;;;;;;;15.55;12.95;;;;;;;;;;5035009;28;20040;-83
2022/07/26 08:40:38;;;;;;;28.48;18.90;;;;;;;;;;5026562;28;20483;-83
2022/07/26 08:43:04;;;;;;;21.35;17.52;;;;;;;;;;5028814;28;20029;-81
2022/07/26 08:45:31;;;;;;;33.38;22.48;;;;;;;;;;5030222;28;20121;-81
2022/07/26 08:47:58;;;;;;;21.63;19.33;;;;;;;;;;5024737;28;20033;-82
2022/07/26 08:50:24;;;;;;;13.57;12.38;;;;;;;;;;5023717;28;20030;-81
2022/07/26 08:52:51;;;;;;;12.80;11.60;;;;;;;;;;5025696;28;20018;-81
2022/07/26 08:55:18;;;;;;;12.85;11.65;;;;;;;;;;5025276;28;20029;-80
2022/07/26 08:57:44;;;;;;;13.90;12.65;;;;;;;;;;5029386;28;20597;-84
2022/07/26 09:00:21;;;;;;;32.22;29.40;;;;;;;;;;5030433;28;20060;-81
2022/07/26 09:02:48;;;;;;;21.08;19.15;;;;;;;;;;5031341;28;20045;-83
2022/07/26 09:05:14;;;;;;;14.43;13.00;;;;;;;;;;5030070;28;20037;-78
2022/07/26 09:10:44;;;;;;;13.10;11.95;;;;;;;;;;5026184;28;20095;-81
2022/07/26 09:13:10;;;;;;;52.45;48.53;;;;;;;;;;5033597;28;20040;-80
2022/07/26 09:15:36;;;;;;;15.52;12.20;;;;;;;;;;5033430;28;20503;-83
2022/07/26 09:18:02;;;;;;;11.88;10.88;;;;;;;;;;5033684;28;20029;-80
2022/07/26 09:20:29;;;;;;;12.60;11.45;;;;;;;;;;5033181;28;20044;-86
2022/07/26 09:22:55;;;;;;;12.93;11.00;;;;;;;;;;5014083;28;20083;-80
2022/07/26 09:25:22;;;;;;;14.95;13.63;;;;;;;;;;5014089;28;20030;-79
2022/07/26 09:27:48;;;;;;;16.02;14.45;;;;;;;;;;4996279;28;20038;-83
2022/07/26 09:30:16;;;;;;;14.15;12.95;;;;;;;;;;5014284;28;20026;-81
2022/07/26 09:32:55;;;;;;;17.27;15.70;;;;;;;;;;5013749;28;20017;-85
2022/07/26 09:35:21;;;;;;;13.85;12.48;;;;;;;;;;5014161;28;20025;-79
2022/07/26 09:37:47;;;;;;;13.18;12.00;;;;;;;;;;5021783;28;20079;-83
2022/07/26 09:40:15;;;;;;;12.20;11.07;;;;;;;;;;5033581;28;20026;-85
2022/07/26 09:42:57;;;;;;;12.95;11.85;;;;;;;;;;5032847;28;20503;-82
2022/07/26 09:45:24;;;;;;;12.93;11.82;;;;;;;;;;5033239;28;20075;-83
2022/07/26 09:47:51;;;;;;;12.52;11.55;;;;;;;;;;5033519;28;20037;-83
2022/07/26 09:50:18;;;;;;;12.48;11.48;;;;;;;;;;5032978;28;20033;-82
2022/07/26 09:53:17;;;;;;;11.05;10.15;;;;;;;;;;5032833;28;20076;-82
2022/07/26 09:55:45;;;;;;;12.77;11.57;;;;;;;;;;4999904;28;20108;-82
2022/07/26 09:58:13;;;;;;;12.90;11.90;;;;;;;;;;5033075;28;20030;-84
2022/07/26 10:00:39;;;;;;;14.52;13.27;;;;;;;;;;5031804;28;20028;-82
2022/07/26 10:03:06;;;;;;;15.23;13.93;;;;;;;;;;5032622;28;20048;-85
2022/07/26 10:05:32;;;;;;;16.45;14.88;;;;;;;;;;5021531;28;20033;-84
2022/07/26 10:07:59;;;;;;;13.88;12.68;;;;;;;;;;5033196;28;20499;-82
2022/07/26 10:10:30;;;;;;;14.18;12.98;;;;;;;;;;5032992;28;20116;-87
2022/07/26 10:12:57;;;;;;;14.15;12.75;;;;;;;;;;5032503;28;20423;-85
2022/07/26 10:15:40;;;;;;;14.45;13.23;;;;;;;;;;5032737;28;20021;-84
2022/07/26 10:18:07;;;;;;;12.57;11.57;;;;;;;;;;5033029;28;20046;-81
2022/07/26 10:20:52;;;;;;;12.85;11.65;;;;;;;;;;5031672;28;20401;-85
2022/07/26 10:23:34;;;;;;;13.02;11.73;;;;;;;;;;5033062;28;20049;-85
2022/07/26 10:26:01;;;;;;;41.70;25.98;;;;;;;;;;5032102;28;20037;-86
2022/07/26 10:28:28;;;;;;;30.55;21.67;;;;;;;;;;5032766;28;20498;-88
2022/07/26 10:31:14;;;;;;;21.45;17.30;;;;;;;;;;5014113;28;20037;-84
2022/07/26 10:33:43;;;;;;;66.47;59.65;;;;;;;;;;5022122;28;20049;-85
2022/07/26 10:36:26;;;;;;;28.95;24.08;;;;;;;;;;5032377;28;20044;-84
2022/07/26 10:39:11;;;;;;;13.15;12.05;;;;;;;;;;5032433;28;20028;-84
2022/07/26 10:41:47;;;;;;;14.75;13.35;;;;;;;;;;5032436;28;20033;-84
2022/07/26 10:44:24;;;;;;;31.42;21.08;;;;;;;;;;5014412;28;20049;-84
2022/07/26 10:47:03;;;;;;;16.05;14.07;;;;;;;;;;5032082;28;20033;-82
2022/07/26 10:49:29;;;;;;;28.90;18.27;;;;;;;;;;5032552;28;20022;-82
2022/07/26 10:52:14;;;;;;;25.42;16.60;;;;;;;;;;5029185;28;20034;-84
2022/07/26 10:54:58;;;;;;;17.30;14.30;;;;;;;;;;5022620;28;20160;-83
2022/07/26 10:57:29;;;;;;;13.57;12.27;;;;;;;;;;5018522;28;20026;-83
2022/07/26 10:59:56;;;;;;;20.50;17.05;;;;;;;;;;5003079;28;20443;-81
2022/07/26 11:02:23;;;;;;;37.33;24.15;;;;;;;;;;5019979;28;20071;-81
2022/07/26 11:04:59;;;;;;;30.55;23.75;;;;;;;;;;5018088;28;20388;-82
2022/07/26 11:07:26;;;;;;;33.08;21.33;;;;;;;;;;5019309;28;20025;-82
2022/07/26 11:09:58;;;;;;;18.20;16.23;;;;;;;;;;5021447;28;20014;-81
2022/07/26 11:12:24;;;;;;;17.65;14.77;;;;;;;;;;5023024;28;20021;-81
2022/07/26 11:14:52;;;;;;;20.05;17.95;;;;;;;;;;5024742;28;20164;-83
2022/07/26 11:17:28;;;;;;;35.00;31.73;;;;;;;;;;5026513;28;20069;-81
2022/07/26 11:19:54;;;;;;;17.95;16.15;;;;;;;;;;5012284;28;20073;-82
2022/07/26 11:22:21;;;;;;;105.25;22.05;;;;;;;;;;5015272;28;20052;-82
2022/07/26 11:24:47;;;;;;;12.23;11.13;;;;;;;;;;4997358;28;20460;-82
2022/07/26 11:27:13;;;;;;;24.42;20.00;;;;;;;;;;5011483;28;20104;-80
2022/07/26 11:29:40;;;;;;;13.52;12.40;;;;;;;;;;5013293;28;20029;-84
2022/07/26 11:32:07;;;;;;;29.73;26.77;;;;;;;;;;5010664;28;20021;-81
2022/07/26 11:34:34;;;;;;;11.43;10.43;;;;;;;;;;5028860;28;20420;-81
2022/07/26 11:37:04;;;;;;;14.35;13.07;;;;;;;;;;5031703;28;20029;-82
2022/07/26 11:39:32;;;;;;;10.88;9.80;;;;;;;;;;5023031;28;20115;-84
2022/07/26 11:42:03;;;;;;;10.50;9.60;;;;;;;;;;5028923;28;20029;-82
2022/07/26 11:44:29;;;;;;;10.00;8.55;;;;;;;;;;5029246;28;20021;-82
2022/07/26 11:46:56;;;;;;;10.57;9.55;;;;;;;;;;5024661;28;20385;-80
2022/07/26 11:49:27;;;;;;;9.30;8.57;;;;;;;;;;5031386;28;20550;-79
2022/07/26 11:51:55;;;;;;;9.60;8.80;;;;;;;;;;5031843;28;20037;-79
2022/07/26 11:54:22;;;;;;;8.75;7.95;;;;;;;;;;5032230;28;20033;-77
2022/07/26 11:56:51;;;;;;;8.88;8.15;;;;;;;;;;5031663;28;20025;-78
2022/07/26 11:59:18;;;;;;;13.40;9.15;;;;;;;;;;5018880;28;20022;-79
2022/07/26 12:01:45;;;;;;;9.52;8.68;;;;;;;;;;5031946;28;20104;-79
2022/07/26 12:04:29;;;;;;;12.10;10.95;;;;;;;;;;5023181;28;20022;-79
2022/07/26 12:06:56;;;;;;;9.85;8.85;;;;;;;;;;5011736;28;20393;-85
2022/07/26 12:09:31;;;;;;;9.60;8.70;;;;;;;;;;5012369;28;20026;-85
2022/07/26 12:11:57;;;;;;;11.32;10.13;;;;;;;;;;5012477;28;20021;-84
2022/07/26 12:14:25;;;;;;;74.70;41.60;;;;;;;;;;5029257;28;20049;-81
2022/07/26 12:16:51;;;;;;;21.50;17.13;;;;;;;;;;5019902;28;20056;-82
2022/07/26 12:19:17;;;;;;;10.80;9.18;;;;;;;;;;5031526;28;20025;-89
2022/07/26 12:21:43;;;;;;;8.65;7.95;;;;;;;;;;5024655;28;20026;-84
2022/07/26 12:24:13;;;;;;;11.27;9.48;;;;;;;;;;5032192;28;20037;-87
2022/07/26 12:26:40;;;;;;;15.05;13.48;;;;;;;;;;5013961;28;20048;-85
2022/07/26 12:32:20;;;;;;;46.95;42.63;;;;;;;;;;5029811;28;20040;-88
2022/07/26 12:34:57;;;;;;;15.45;11.27;;;;;;;;;;5014868;28;20457;-88
2022/07/26 12:37:24;;;;;;;8.88;8.05;;;;;;;;;;5017538;28;20029;-87
2022/07/26 12:40:00;;;;;;;7.78;7.05;;;;;;;;;;5013284;28;20026;-87
2022/07/26 12:42:28;;;;;;;7.03;6.40;;;;;;;;;;5031762;28;20472;-86
2022/07/26 12:44:54;;;;;;;7.05;6.35;;;;;;;;;;5031165;28;20093;-87
2022/07/26 12:47:20;;;;;;;35.78;18.90;;;;;;;;;;5031348;28;20026;-85
2022/07/26 12:49:47;;;;;;;86.85;41.63;;;;;;;;;;5031234;28;20442;-86
2022/07/26 12:52:14;;;;;;;24.15;15.35;;;;;;;;;;5031474;28;20029;-83
2022/07/26 12:54:40;;;;;;;12.07;9.32;;;;;;;;;;5031339;28;20479;-83
2022/07/26 12:57:06;;;;;;;16.73;10.60;;;;;;;;;;5031698;28;20044;-87
2022/07/26 12:59:33;;;;;;;17.75;11.57;;;;;;;;;;5027869;28;20049;-86
2022/07/26 13:01:59;;;;;;;12.60;10.07;;;;;;;;;;5009205;28;20107;-81
2022/07/26 13:04:25;;;;;;;12.80;8.48;;;;;;;;;;5030880;28;20480;-81
2022/07/26 13:06:51;;;;;;;8.43;7.63;;;;;;;;;;5030709;28;20021;-85
2022/07/26 13:09:17;;;;;;;7.72;6.78;;;;;;;;;;5031683;28;20032;-84
2022/07/26 13:11:43;;;;;;;8.68;7.07;;;;;;;;;;5031258;28;20025;-86
2022/07/26 13:14:09;;;;;;;5.45;5.05;;;;;;;;;;4996680;28;20161;-83
2022/07/26 13:16:35;;;;;;;5.93;5.43;;;;;;;;;;5011796;28;20037;-83
2022/07/26 13:19:02;;;;;;;5.70;5.20;;;;;;;;;;5029399;28;20124;-82
2022/07/26 13:21:30;;;;;;;6.20;5.70;;;;;;;;;;5035174;28;20053;-83
2022/07/26 13:23:56;;;;;;;8.68;8.05;;;;;;;;;;5034477;28;20557;-83
2022/07/26 13:26:23;;;;;;;5.90;5.28;;;;;;;;;;5034730;28;20022;-82
2022/07/26 13:28:49;;;;;;;11.77;6.50;;;;;;;;;;5016598;28;20370;-83
2022/07/26 13:31:15;;;;;;;6.82;6.22;;;;;;;;;;5033786;28;20028;-82
2022/07/26 13:33:41;;;;;;;6.32;5.70;;;;;;;;;;5031178;28;20017;-83
2022/07/26 13:36:08;;;;;;;6.32;5.80;;;;;;;;;;5034833;28;20503;-83
2022/07/26 13:38:34;;;;;;;5.93;5.50;;;;;;;;;;5034637;28;20377;-83
2022/07/26 13:41:03;;;;;;;6.15;5.65;;;;;;;;;;5034803;28;20029;-84
2022/07/26 13:43:30;;;;;;;6.05;5.53;;;;;;;;;;5015151;28;20117;-81
2022/07/26 13:45:56;;;;;;;6.00;5.50;;;;;;;;;;5034337;28;20049;-84
2022/07/26 13:48:23;;;;;;;5.65;5.15;;;;;;;;;;5034512;28;20063;-84
2022/07/26 13:50:49;;;;;;;5.78;5.28;;;;;;;;;;5016845;28;20030;-81
2022/07/26 13:53:15;;;;;;;5.53;5.03;;;;;;;;;;4999388;28;20064;-85
2022/07/26 13:55:42;;;;;;;5.90;5.40;;;;;;;;;;5013793;28;20037;-82
2022/07/26 13:58:08;;;;;;;5.45;5.05;;;;;;;;;;5013424;28;20621;-84
2022/07/26 14:00:34;;;;;;;6.00;5.50;;;;;;;;;;5014430;28;20108;-82
2022/07/26 14:03:00;;;;;;;7.75;5.32;;;;;;;;;;5029268;28;20065;-82
2022/07/26 14:05:26;;;;;;;6.07;5.53;;;;;;;;;;5033783;28;20029;-86
2022/07/26 14:07:53;;;;;;;5.65;5.10;;;;;;;;;;5034428;28;20028;-80
2022/07/26 14:10:20;;;;;;;5.80;5.32;;;;;;;;;;5033681;28;20113;-82
2022/07/26 14:12:46;;;;;;;5.50;5.10;;;;;;;;;;5034451;28;20022;-81
2022/07/26 14:15:12;;;;;;;5.72;5.30;;;;;;;;;;5033778;28;20399;-82
2022/07/26 14:17:39;;;;;;;5.45;4.95;;;;;;;;;;5025682;28;20029;-81
2022/07/26 14:20:05;;;;;;;5.65;5.22;;;;;;;;;;5014163;28;20053;-82
2022/07/26 14:22:32;;;;;;;5.35;4.88;;;;;;;;;;4997947;28;20087;-83
2022/07/26 14:24:58;;;;;;;5.13;4.72;;;;;;;;;;5027850;28;20464;-81
2022/07/26 14:27:24;;;;;;;5.50;5.00;;;;;;;;;;5014189;28;20026;-82
2022/07/26 14:29:50;;;;;;;5.07;4.68;;;;;;;;;;5018327;28;20483;-83
2022/07/26 14:32:16;;;;;;;4.70;4.30;;;;;;;;;;5033697;28;20025;-83
2022/07/26 14:34:42;;;;;;;5.22;4.72;;;;;;;;;;5033949;28;20033;-83
2022/07/26 14:37:08;;;;;;;4.50;4.10;;;;;;;;;;4998806;28;20448;-83
2022/07/26 14:39:34;;;;;;;5.40;4.97;;;;;;;;;;5013940;28;20034;-83